Time;durP1;ratioP1;P1;durP2;ratioP2;P2;SDS_P1;SDS_P2;PMS_P1;PMS_P2;Temp;Humidity;BMP_temperature;BMP_pressure;BME280_temperature;BME280_humidity;BME280_pressure;Samples;Min_cycle;Max_cycle;Signal;HPM_P1;HPM_P2
2022/12/23 00:00:40;;;;;;;34.30;10.63;;;7.10;99.90;;;;;;5053284;28;20072;-62
2022/12/23 00:03:06;;;;;;;25.52;10.60;;;7.20;99.90;;;;;;5018850;28;20029;-61
2022/12/23 00:05:36;;;;;;;17.08;8.15;;;7.20;99.90;;;;;;5053125;28;20550;-61
2022/12/23 00:08:02;;;;;;;22.97;9.80;;;7.20;99.90;;;;;;5035656;28;20033;-61
2022/12/23 00:10:27;;;;;;;21.77;10.13;;;7.20;99.90;;;;;;5035522;28;20098;-61
2022/12/23 00:15:37;;;;;;;22.73;9.65;;;7.20;99.90;;;;;;5053237;28;20485;-62
2022/12/23 00:18:03;;;;;;;24.75;11.30;;;7.20;99.90;;;;;;5053099;28;20043;-62
2022/12/23 00:20:29;;;;;;;18.25;9.10;;;7.20;99.90;;;;;;5053154;28;20051;-61
2022/12/23 00:23:06;;;;;;;21.85;9.80;;;7.20;99.90;;;;;;5053073;28;20069;-61
2022/12/23 00:25:40;;;;;;;26.77;11.00;;;7.20;99.90;;;;;;5035325;28;20029;-61
2022/12/23 00:28:12;;;;;;;19.00;9.80;;;7.20;99.90;;;;;;5053044;28;20037;-61
2022/12/23 00:30:51;;;;;;;26.30;9.25;;;7.20;99.90;;;;;;5035044;28;20056;-61
2022/12/23 00:33:29;;;;;;;24.40;10.35;;;7.20;99.90;;;;;;5053056;28;20365;-62
2022/12/23 00:35:55;;;;;;;20.25;8.88;;;7.20;99.90;;;;;;5035159;28;20048;-62
2022/12/23 00:43:57;;;;;;;24.67;9.82;;;7.20;99.90;;;;;;5052897;28;20045;-61
2022/12/23 00:46:22;;;;;;;23.38;10.13;;;7.20;99.90;;;;;;5052611;28;20495;-61
2022/12/23 00:51:32;;;;;;;36.13;11.05;;;7.20;99.90;;;;;;5052842;28;20079;-62
2022/12/23 00:53:58;;;;;;;25.27;10.50;;;7.20;99.90;;;;;;5052857;28;20037;-62
2022/12/23 00:56:23;;;;;;;22.92;10.45;;;7.20;99.90;;;;;;5052875;28;20036;-62
2022/12/23 00:58:49;;;;;;;22.52;10.23;;;7.20;99.90;;;;;;5052459;28;20408;-62
2022/12/23 01:06:43;;;;;;;19.88;8.82;;;7.20;99.90;;;;;;5052240;28;20132;-61
2022/12/23 01:09:09;;;;;;;24.17;9.70;;;7.20;99.90;;;;;;5054204;28;20159;-61
2022/12/23 01:11:34;;;;;;;25.05;9.57;;;7.20;99.90;;;;;;5056641;28;20506;-62
2022/12/23 01:14:00;;;;;;;23.63;10.23;;;7.20;99.90;;;;;;5056514;28;20420;-61
2022/12/23 01:16:26;;;;;;;24.85;11.25;;;7.20;99.90;;;;;;5056155;28;20049;-62
2022/12/23 01:18:51;;;;;;;22.05;9.68;;;7.20;99.90;;;;;;5056397;28;20036;-62
2022/12/23 01:21:17;;;;;;;22.98;9.85;;;7.20;99.90;;;;;;5056165;28;20037;-62
2022/12/23 01:23:42;;;;;;;19.80;9.65;;;7.20;99.90;;;;;;5056311;28;20123;-62
2022/12/23 01:26:09;;;;;;;21.40;9.38;;;7.20;99.90;;;;;;5056420;28;20041;-62
2022/12/23 01:28:35;;;;;;;21.02;8.93;;;7.20;99.90;;;;;;5056288;28;20067;-61
2022/12/23 01:31:03;;;;;;;20.30;8.52;;;7.20;99.90;;;;;;5055952;28;20480;-62
2022/12/23 01:33:30;;;;;;;23.13;9.48;;;7.20;99.90;;;;;;5056158;28;20044;-61
2022/12/23 01:36:05;;;;;;;18.92;9.05;;;7.20;99.90;;;;;;5056183;28;20037;-61
2022/12/23 01:38:32;;;;;;;17.70;8.68;;;7.20;99.90;;;;;;5056157;28;20045;-61
2022/12/23 01:40:57;;;;;;;20.60;9.07;;;7.20;99.90;;;;;;5056010;28;20481;-62
2022/12/23 01:43:42;;;;;;;20.77;8.80;;;7.20;99.90;;;;;;5056003;28;20033;-61
2022/12/23 01:46:08;;;;;;;17.00;8.40;;;7.20;99.90;;;;;;5056029;28;20119;-62
2022/12/23 01:48:33;;;;;;;18.88;8.73;;;7.20;99.90;;;;;;5055981;28;20091;-61
2022/12/23 01:51:06;;;;;;;19.45;8.20;;;7.20;99.90;;;;;;5037722;28;20047;-61
2022/12/23 01:53:37;;;;;;;19.67;9.50;;;7.20;99.90;;;;;;5055865;28;20037;-62
2022/12/23 01:56:15;;;;;;;15.07;7.43;;;7.20;99.90;;;;;;5055825;28;20044;-61
2022/12/23 01:58:51;;;;;;;16.30;8.13;;;7.20;99.90;;;;;;5055644;28;20119;-61
2022/12/23 02:04:07;;;;;;;20.63;8.27;;;7.20;99.90;;;;;;5055653;28;20409;-62
2022/12/23 02:09:31;;;;;;;21.35;8.68;;;7.20;99.90;;;;;;5055501;28;20041;-62
2022/12/23 02:12:35;;;;;;;19.38;8.40;;;7.20;99.90;;;;;;5055458;28;20045;-61
2022/12/23 02:18:17;;;;;;;25.23;9.05;;;7.20;99.90;;;;;;5055222;28;20120;-61
2022/12/23 02:21:05;;;;;;;23.50;9.63;;;7.20;99.90;;;;;;5054640;28;20049;-62
2022/12/23 02:23:56;;;;;;;20.90;9.02;;;7.20;99.90;;;;;;5055300;28;20116;-61
2022/12/23 02:26:30;;;;;;;23.83;10.60;;;7.20;99.90;;;;;;5037087;28;20041;-62
2022/12/23 02:29:20;;;;;;;22.05;9.23;;;7.20;99.90;;;;;;5055169;28;20469;-61
2022/12/23 02:32:12;;;;;;;21.20;8.63;;;7.20;99.90;;;;;;5055040;28;20403;-61
2022/12/23 02:34:43;;;;;;;;;;;7.20;99.90;;;;;;5055525;28;20396;-61
2022/12/23 02:37:20;;;;;;;18.90;8.52;;;7.20;99.90;;;;;;5055095;28;20355;-62
2022/12/23 02:40:34;;;;;;;25.80;8.88;;;7.20;99.90;;;;;;5036961;28;20048;-61
2022/12/23 02:43:03;;;;;;;20.15;8.25;;;7.20;99.90;;;;;;5054633;28;20052;-61
2022/12/23 02:45:37;;;;;;;25.05;8.93;;;7.20;99.90;;;;;;5054800;28;20063;-61
2022/12/23 02:48:33;;;;;;;25.67;9.93;;;7.20;99.90;;;;;;5054826;28;20120;-61
2022/12/23 02:51:01;;;;;;;22.85;9.48;;;7.20;99.90;;;;;;5036014;28;20160;-62
2022/12/23 02:53:36;;;;;;;19.60;8.27;;;7.20;99.90;;;;;;5036861;28;20086;-61
2022/12/23 02:56:05;;;;;;;17.58;7.65;;;7.10;99.90;;;;;;5036525;28;20069;-61
2022/12/23 02:58:40;;;;;;;21.88;8.40;;;7.10;99.90;;;;;;5054496;28;20083;-62
2022/12/23 03:01:06;;;;;;;22.48;8.88;;;7.20;99.90;;;;;;5054492;28;20041;-63
2022/12/23 03:03:35;;;;;;;18.42;7.63;;;7.20;99.90;;;;;;5054622;28;20230;-61
2022/12/23 03:06:04;;;;;;;23.77;9.48;;;7.20;99.90;;;;;;5054173;28;20057;-62
2022/12/23 03:08:39;;;;;;;20.58;7.63;;;7.20;99.90;;;;;;5054420;28;20032;-61
2022/12/23 03:11:08;;;;;;;17.95;6.90;;;7.20;99.90;;;;;;5054412;28;20067;-62
2022/12/23 03:13:59;;;;;;;18.17;7.82;;;7.10;99.90;;;;;;5054403;28;20047;-61
2022/12/23 03:16:50;;;;;;;17.97;7.07;;;7.20;99.90;;;;;;5053944;28;20041;-62
2022/12/23 03:19:35;;;;;;;18.27;7.68;;;7.20;99.90;;;;;;5054202;28;20060;-61
2022/12/23 03:22:28;;;;;;;19.90;7.22;;;7.20;99.90;;;;;;5054146;28;20040;-61
2022/12/23 03:25:09;;;;;;;29.05;8.38;;;7.20;99.90;;;;;;5054151;28;20047;-63
2022/12/23 03:27:52;;;;;;;20.70;7.93;;;7.20;99.90;;;;;;5054022;28;20075;-61
2022/12/23 03:30:19;;;;;;;22.15;8.57;;;7.20;99.90;;;;;;5036424;28;20045;-61
2022/12/23 03:33:17;;;;;;;19.58;7.40;;;7.20;99.90;;;;;;5035477;28;20072;-61
2022/12/23 03:35:52;;;;;;;17.35;7.35;;;7.20;99.90;;;;;;5038104;28;20053;-61
2022/12/23 03:38:19;;;;;;;19.45;7.32;;;7.20;99.90;;;;;;5053878;28;20400;-62
2022/12/23 03:40:51;;;;;;;22.10;8.25;;;7.20;99.90;;;;;;5053670;28;20080;-61
2022/12/23 03:43:43;;;;;;;22.55;7.53;;;7.20;99.90;;;;;;5035758;28;20045;-61
2022/12/23 03:46:17;;;;;;;18.55;7.40;;;7.20;99.90;;;;;;5053540;28;20045;-61
2022/12/23 03:48:54;;;;;;;22.55;7.57;;;7.20;99.90;;;;;;5035594;28;20045;-62
2022/12/23 03:51:37;;;;;;;19.10;6.75;;;7.20;99.90;;;;;;5053637;28;20075;-61
2022/12/23 03:54:13;;;;;;;18.80;7.57;;;7.10;99.90;;;;;;5035719;28;20053;-62
2022/12/23 03:56:48;;;;;;;16.77;6.38;;;7.10;99.90;;;;;;5053535;28;20069;-62
2022/12/23 03:59:18;;;;;;;19.10;7.55;;;7.70;99.90;;;;;;5053442;28;20063;-61
2022/12/23 04:02:36;;;;;;;19.33;6.50;;;7.10;99.90;;;;;;5035230;28;20049;-62
2022/12/23 04:05:29;;;;;;;19.83;7.95;;;7.10;99.90;;;;;;4964663;28;20055;-62
2022/12/23 04:08:03;;;;;;;17.92;7.90;;;7.10;99.90;;;;;;5053251;28;20397;-61
2022/12/23 04:10:30;;;;;;;15.88;6.65;;;7.10;99.90;;;;;;5053313;28;20039;-61
2022/12/23 04:12:56;;;;;;;19.67;7.85;;;7.10;99.90;;;;;;5052840;28;20033;-62
2022/12/23 04:15:24;;;;;;;19.02;7.22;;;7.10;99.90;;;;;;5052847;28;20085;-62
2022/12/23 04:17:51;;;;;;;21.80;7.45;;;7.10;99.90;;;;;;5053208;28;20108;-62
2022/12/23 04:20:17;;;;;;;24.50;7.55;;;7.10;99.90;;;;;;5052782;28;20033;-61
2022/12/23 04:22:43;;;;;;;20.20;7.97;;;7.10;99.90;;;;;;5053103;28;20083;-62
2022/12/23 04:25:10;;;;;;;23.45;7.70;;;7.00;99.90;;;;;;5035051;28;20060;-61
2022/12/23 04:27:36;;;;;;;21.92;8.02;;;7.00;99.90;;;;;;5052745;28;20090;-61
2022/12/23 04:30:02;;;;;;;20.60;7.93;;;7.10;99.90;;;;;;5053129;28;20120;-62
2022/12/23 04:32:28;;;;;;;18.40;7.20;;;7.00;99.90;;;;;;5053021;28;20056;-62
2022/12/23 04:34:53;;;;;;;16.70;6.97;;;7.00;99.90;;;;;;5053001;28;20041;-62
2022/12/23 04:37:19;;;;;;;19.77;7.18;;;7.00;99.90;;;;;;5052706;28;20123;-61
2022/12/23 04:39:44;;;;;;;18.55;6.80;;;7.00;99.90;;;;;;5034613;28;20099;-62
2022/12/23 04:42:10;;;;;;;24.85;7.97;;;7.00;99.90;;;;;;5053069;28;20037;-62
2022/12/23 04:44:35;;;;;;;20.42;8.02;;;7.00;99.90;;;;;;5059602;28;20076;-61
2022/12/23 04:47:01;;;;;;;16.05;7.30;;;7.00;99.90;;;;;;5059634;28;20059;-61
2022/12/23 04:49:26;;;;;;;19.77;7.97;;;7.00;99.90;;;;;;5059432;28;20037;-62
2022/12/23 04:51:52;;;;;;;21.52;7.68;;;6.90;99.90;;;;;;5041603;28;20136;-62
2022/12/23 04:54:18;;;;;;;19.33;7.45;;;6.90;99.90;;;;;;5059391;28;20187;-61
2022/12/23 04:56:43;;;;;;;20.27;8.43;;;6.90;99.90;;;;;;5059416;28;20045;-62
2022/12/23 04:59:09;;;;;;;26.13;9.95;;;6.90;99.90;;;;;;5059477;28;20051;-62
2022/12/23 05:01:35;;;;;;;24.08;9.25;;;6.90;99.90;;;;;;5041246;28;20131;-62
2022/12/23 05:04:01;;;;;;;21.55;9.15;;;6.90;99.90;;;;;;5059475;28;20076;-61
2022/12/23 05:06:26;;;;;;;21.77;8.45;;;6.90;99.90;;;;;;5058862;28;20053;-61
2022/12/23 05:08:52;;;;;;;26.23;9.10;;;6.90;99.90;;;;;;5059378;28;20076;-61
2022/12/23 05:11:17;;;;;;;23.33;8.32;;;6.90;99.90;;;;;;5059138;28;20045;-61
2022/12/23 05:13:43;;;;;;;31.65;9.98;;;6.90;99.90;;;;;;5059282;28;20037;-62
2022/12/23 05:16:09;;;;;;;28.50;9.20;;;6.90;99.90;;;;;;5058799;28;20044;-62
2022/12/23 05:18:34;;;;;;;21.17;8.32;;;6.90;99.90;;;;;;5059276;28;20041;-62
2022/12/23 05:21:00;;;;;;;21.65;8.57;;;6.90;99.90;;;;;;5059258;28;20049;-61
2022/12/23 05:23:25;;;;;;;20.48;8.07;;;6.90;99.90;;;;;;5041049;28;20048;-61
2022/12/23 05:25:52;;;;;;;23.63;9.32;;;6.80;99.90;;;;;;5058910;28;20036;-61
2022/12/23 05:28:19;;;;;;;19.42;8.02;;;6.80;99.90;;;;;;5041276;28;20495;-62
2022/12/23 05:30:44;;;;;;;22.00;9.07;;;6.80;99.90;;;;;;5059152;28;20538;-61
2022/12/23 05:33:10;;;;;;;29.77;9.45;;;6.80;99.90;;;;;;5058927;28;20041;-61
2022/12/23 05:35:36;;;;;;;31.35;8.82;;;6.80;99.90;;;;;;5059144;28;20041;-61
2022/12/23 05:38:02;;;;;;;41.83;8.18;;;6.70;99.90;;;;;;5058842;28;20404;-62
2022/12/23 05:40:28;;;;;;;26.17;7.95;;;6.70;99.90;;;;;;5058973;28;20059;-62
2022/12/23 05:42:54;;;;;;;35.38;8.65;;;6.70;99.90;;;;;;5058853;28;20488;-61
2022/12/23 05:45:20;;;;;;;36.92;7.55;;;6.70;99.90;;;;;;5059016;28;20068;-61
2022/12/23 05:47:45;;;;;;;30.02;6.97;;;6.70;99.90;;;;;;5058512;28;20435;-61
2022/12/23 05:50:11;;;;;;;29.58;5.85;;;6.70;99.90;;;;;;5059019;28;20029;-62
2022/12/23 05:52:37;;;;;;;41.42;7.10;;;6.70;99.90;;;;;;5058703;28;20090;-61
2022/12/23 05:55:03;;;;;;;28.00;7.57;;;6.70;99.90;;;;;;5056268;28;20476;-61
2022/12/23 05:57:30;;;;;;;42.00;6.80;;;6.60;99.90;;;;;;5055817;28;20037;-62
2022/12/23 05:59:56;;;;;;;36.75;6.25;;;6.70;99.90;;;;;;5055755;28;20052;-65
2022/12/23 06:02:22;;;;;;;36.83;6.20;;;6.70;99.90;;;;;;5055702;28;20033;-61
2022/12/23 06:04:48;;;;;;;22.92;5.45;;;6.70;99.90;;;;;;5055560;28;20484;-62
2022/12/23 06:07:14;;;;;;;22.80;5.85;;;6.70;99.90;;;;;;5055626;28;20404;-61
2022/12/23 06:09:40;;;;;;;30.02;6.28;;;6.70;99.90;;;;;;5037689;28;20039;-62
2022/12/23 06:12:05;;;;;;;18.25;6.15;;;6.70;99.90;;;;;;5020887;28;20049;-61
2022/12/23 06:14:31;;;;;;;15.90;5.97;;;6.70;99.90;;;;;;5055543;28;20068;-62
2022/12/23 06:16:56;;;;;;;13.55;5.25;;;6.70;99.90;;;;;;5055187;28;20094;-62
2022/12/23 06:19:22;;;;;;;24.80;7.05;;;6.70;99.90;;;;;;5054968;28;20041;-62
2022/12/23 06:21:47;;;;;;;13.75;5.32;;;6.60;99.90;;;;;;5037562;28;20072;-62
2022/12/23 06:24:13;;;;;;;23.70;6.20;;;6.70;99.90;;;;;;5055410;28;20079;-62
2022/12/23 06:26:38;;;;;;;26.60;6.82;;;6.70;99.90;;;;;;5055200;28;20037;-62
2022/12/23 06:29:04;;;;;;;21.23;7.35;;;6.70;99.90;;;;;;5037052;28;20499;-62
2022/12/23 06:31:30;;;;;;;27.15;7.38;;;6.70;99.90;;;;;;5054881;28;20087;-62
2022/12/23 06:33:55;;;;;;;15.98;5.53;;;6.70;99.90;;;;;;5055176;28;20029;-61
2022/12/23 06:36:21;;;;;;;17.92;5.80;;;6.70;99.90;;;;;;5055110;28;20044;-62
2022/12/23 06:38:46;;;;;;;22.38;7.03;;;6.60;99.90;;;;;;5054729;28;20063;-62
2022/12/23 06:41:12;;;;;;;19.48;6.43;;;6.60;99.90;;;;;;5054627;28;20059;-63
2022/12/23 06:43:38;;;;;;;16.40;6.15;;;6.60;99.90;;;;;;5055007;28;20029;-62
2022/12/23 06:46:03;;;;;;;21.08;6.72;;;6.60;99.90;;;;;;5054880;28;20419;-62
2022/12/23 06:48:29;;;;;;;23.10;6.38;;;6.60;99.90;;;;;;5054931;28;20063;-62
2022/12/23 06:50:55;;;;;;;14.98;6.72;;;6.60;99.90;;;;;;5054825;28;20528;-62
2022/12/23 06:53:20;;;;;;;16.70;7.43;;;7.10;99.90;;;;;;5054818;28;20538;-63
2022/12/23 06:55:46;;;;;;;18.88;6.25;;;6.60;99.90;;;;;;5036658;28;20507;-62
2022/12/23 06:58:11;;;;;;;17.83;5.68;;;6.60;99.90;;;;;;5036981;28;20052;-62
2022/12/23 07:00:37;;;;;;;19.60;6.63;;;6.60;99.90;;;;;;5054578;28;20400;-59
2022/12/23 07:03:02;;;;;;;17.25;7.13;;;6.60;99.90;;;;;;5054275;28;20435;-59
2022/12/23 07:05:28;;;;;;;19.63;7.70;;;6.60;99.90;;;;;;5053851;28;20091;-59
2022/12/23 07:07:54;;;;;;;13.38;5.53;;;6.60;99.90;;;;;;5053598;28;20029;-59
2022/12/23 07:10:19;;;;;;;17.20;6.65;;;6.60;99.90;;;;;;5054449;28;20037;-60
2022/12/23 07:12:45;;;;;;;16.55;6.53;;;6.50;99.90;;;;;;5054150;28;20500;-59
2022/12/23 07:15:11;;;;;;;15.90;6.35;;;6.60;99.90;;;;;;5054421;28;20431;-60
2022/12/23 07:17:36;;;;;;;19.75;5.93;;;6.60;99.90;;;;;;5054308;28;20048;-60
2022/12/23 07:20:02;;;;;;;18.45;5.15;;;6.60;99.90;;;;;;5036209;28;20531;-59
2022/12/23 07:22:28;;;;;;;22.92;6.43;;;6.60;99.90;;;;;;5054147;28;20037;-62
2022/12/23 07:24:53;;;;;;;11.73;5.28;;;6.60;99.90;;;;;;5054190;28;20029;-62
2022/12/23 07:27:19;;;;;;;17.40;6.20;;;6.60;99.90;;;;;;5036014;28;20048;-62
2022/12/23 07:29:44;;;;;;;16.75;6.40;;;6.60;99.90;;;;;;5054097;28;20464;-61
2022/12/23 07:32:10;;;;;;;19.52;6.05;;;6.50;99.90;;;;;;5053776;28;20557;-61
2022/12/23 07:34:36;;;;;;;12.43;5.90;;;6.50;99.90;;;;;;5036170;28;20041;-61
2022/12/23 07:37:01;;;;;;;10.85;5.10;;;6.60;99.90;;;;;;5053982;28;20040;-61
2022/12/23 07:39:27;;;;;;;14.73;5.90;;;6.50;99.90;;;;;;5053654;28;20087;-63
2022/12/23 07:41:53;;;;;;;15.20;5.40;;;6.50;99.90;;;;;;5053814;28;20037;-61
2022/12/23 07:44:18;;;;;;;15.27;6.70;;;6.50;99.90;;;;;;5035718;28;20044;-62
2022/12/23 07:46:44;;;;;;;11.98;5.57;;;6.50;99.90;;;;;;5053509;28;20476;-61
2022/12/23 07:49:09;;;;;;;14.90;5.07;;;6.60;99.90;;;;;;5053743;28;20473;-61
2022/12/23 07:51:35;;;;;;;10.60;5.10;;;6.50;99.90;;;;;;5035569;28;20040;-61
2022/12/23 07:54:00;;;;;;;11.35;4.60;;;6.50;99.90;;;;;;5053387;28;20408;-61
2022/12/23 07:56:26;;;;;;;11.77;4.53;;;6.50;99.90;;;;;;5053622;28;20072;-61
2022/12/23 07:58:52;;;;;;;10.57;4.03;;;6.50;99.90;;;;;;5053558;28;20076;-61
2022/12/23 08:01:18;;;;;;;11.00;4.53;;;6.50;99.90;;;;;;5053473;28;20045;-62
2022/12/23 08:03:44;;;;;;;9.63;4.18;;;6.50;99.90;;;;;;5053197;28;20131;-62
2022/12/23 08:06:11;;;;;;;8.63;3.85;;;6.50;99.90;;;;;;5053131;28;20459;-61
2022/12/23 08:08:39;;;;;;;11.35;4.65;;;6.50;99.90;;;;;;5053786;28;20052;-61
2022/12/23 08:11:06;;;;;;;10.32;5.03;;;6.50;99.90;;;;;;5035277;28;20433;-61
2022/12/23 08:13:34;;;;;;;8.15;4.18;;;6.50;99.90;;;;;;5053356;28;20066;-62
2022/12/23 08:16:02;;;;;;;10.25;4.45;;;6.50;99.90;;;;;;5053285;28;20045;-61
2022/12/23 08:18:33;;;;;;;8.10;3.95;;;7.30;99.90;;;;;;5052758;28;20051;-62
2022/12/23 08:21:14;;;;;;;11.93;4.40;;;6.50;99.90;;;;;;5052834;28;20053;-62
2022/12/23 08:23:40;;;;;;;10.52;3.90;;;6.50;99.90;;;;;;5035116;28;20036;-61
2022/12/23 08:26:12;;;;;;;9.15;4.50;;;6.50;99.90;;;;;;5053082;28;20480;-61
2022/12/23 08:28:39;;;;;;;8.82;4.38;;;6.60;99.90;;;;;;5035009;28;20052;-62
2022/12/23 08:31:11;;;;;;;8.00;4.38;;;6.60;99.90;;;;;;5052940;28;20084;-62
2022/12/23 08:33:39;;;;;;;9.70;5.13;;;6.60;99.90;;;;;;5053064;28;20083;-61
2022/12/23 08:36:07;;;;;;;11.32;4.82;;;6.60;99.90;;;;;;5052932;28;20037;-67
2022/12/23 08:38:33;;;;;;;9.57;4.60;;;6.60;99.90;;;;;;5034816;28;20051;-61
2022/12/23 08:40:59;;;;;;;10.20;4.57;;;6.50;99.90;;;;;;5034685;28;20080;-65
2022/12/23 08:43:25;;;;;;;8.90;4.43;;;7.00;99.90;;;;;;5018286;28;20080;-60
2022/12/23 08:45:50;;;;;;;7.40;3.63;;;6.60;99.90;;;;;;5034693;28;20520;-61
2022/12/23 08:48:16;;;;;;;9.00;4.28;;;6.60;99.90;;;;;;5052810;28;20086;-59
2022/12/23 08:50:44;;;;;;;10.98;5.03;;;6.60;99.90;;;;;;5052459;28;20516;-60
2022/12/23 08:53:11;;;;;;;10.50;4.93;;;6.60;99.90;;;;;;5052713;28;20043;-61
2022/12/23 08:55:44;;;;;;;8.63;4.30;;;6.60;99.90;;;;;;5052494;28;20052;-62
2022/12/23 08:58:12;;;;;;;11.95;5.18;;;6.70;99.90;;;;;;5052856;28;20037;-62
2022/12/23 09:00:38;;;;;;;11.18;4.28;;;6.70;99.90;;;;;;5034576;28;20045;-61
2022/12/23 09:03:04;;;;;;;9.13;4.10;;;6.70;99.90;;;;;;5052554;28;20032;-59
2022/12/23 09:05:30;;;;;;;14.38;5.80;;;6.80;99.90;;;;;;5034706;28;20071;-59
2022/12/23 09:07:56;;;;;;;8.32;4.30;;;6.80;99.90;;;;;;5034839;28;20556;-59
2022/12/23 09:10:22;;;;;;;8.38;4.50;;;7.20;99.90;;;;;;5052730;28;20036;-59
2022/12/23 09:12:48;;;;;;;8.95;3.60;;;6.80;99.90;;;;;;5052681;28;20037;-59
2022/12/23 09:15:14;;;;;;;9.00;3.83;;;6.80;99.90;;;;;;5034553;28;20048;-59
2022/12/23 09:17:40;;;;;;;9.63;3.58;;;6.90;99.90;;;;;;5034605;28;20051;-59
2022/12/23 09:20:07;;;;;;;8.32;4.25;;;6.90;99.90;;;;;;5052402;28;20540;-60
2022/12/23 09:22:33;;;;;;;8.02;4.22;;;6.90;99.90;;;;;;5052611;28;20052;-60
2022/12/23 09:24:58;;;;;;;10.70;4.03;;;6.90;99.90;;;;;;5052622;28;20507;-59
2022/12/23 09:27:24;;;;;;;9.68;3.42;;;7.00;99.90;;;;;;5034483;28;20041;-60
2022/12/23 09:29:49;;;;;;;9.57;3.50;;;7.00;99.90;;;;;;5035313;28;20041;-60
2022/12/23 09:32:15;;;;;;;7.45;4.03;;;7.10;99.90;;;;;;5056365;28;20377;-59
2022/12/23 09:34:41;;;;;;;9.65;4.07;;;7.10;99.90;;;;;;5038127;28;20041;-60
2022/12/23 09:37:06;;;;;;;8.00;3.88;;;7.20;99.90;;;;;;5038374;28;20407;-62
2022/12/23 09:39:33;;;;;;;9.07;4.35;;;7.20;99.90;;;;;;5038142;28;20098;-62
2022/12/23 09:42:24;;;;;;;8.15;4.05;;;7.20;99.90;;;;;;5055791;28;20056;-61
2022/12/23 09:45:36;;;;;;;8.68;4.25;;;7.20;99.90;;;;;;5021700;28;20037;-62
2022/12/23 09:48:03;;;;;;;7.95;3.33;;;7.20;99.90;;;;;;5056066;28;20045;-62
2022/12/23 09:50:33;;;;;;;7.32;3.30;;;7.20;99.90;;;;;;5037899;28;20124;-62
2022/12/23 09:53:24;;;;;;;5.88;3.05;;;7.20;99.90;;;;;;5038217;28;20091;-62
2022/12/23 09:55:59;;;;;;;7.40;3.28;;;7.20;99.90;;;;;;5055685;28;20117;-63
2022/12/23 09:58:28;;;;;;;6.20;3.45;;;7.30;99.90;;;;;;5055924;28;20103;-62
2022/12/23 10:01:14;;;;;;;7.63;3.63;;;7.40;99.90;;;;;;5055458;28;20048;-62
2022/12/23 10:04:29;;;;;;;8.50;4.40;;;7.40;99.90;;;;;;5055814;28;20037;-62
2022/12/23 10:07:13;;;;;;;6.60;3.58;;;7.50;99.90;;;;;;5037615;28;20111;-60
2022/12/23 10:09:41;;;;;;;6.03;3.38;;;7.50;99.90;;;;;;5037534;28;20139;-60
2022/12/23 10:12:33;;;;;;;12.70;4.22;;;7.50;99.90;;;;;;5055542;28;20033;-60
2022/12/23 10:15:02;;;;;;;7.90;3.92;;;7.60;99.90;;;;;;5055523;28;20381;-60
2022/12/23 10:17:38;;;;;;;12.65;3.92;;;7.60;99.90;;;;;;5055473;28;20041;-61
2022/12/23 10:20:06;;;;;;;7.85;3.60;;;7.60;99.90;;;;;;5037213;28;20045;-61
2022/12/23 10:22:40;;;;;;;10.55;4.13;;;7.60;99.90;;;;;;5055376;28;20082;-58
2022/12/23 10:25:32;;;;;;;7.22;3.85;;;7.60;99.90;;;;;;5055415;28;20080;-61
2022/12/23 10:27:57;;;;;;;6.85;3.28;;;7.60;99.90;;;;;;5054329;28;20064;-60
2022/12/23 10:30:23;;;;;;;8.77;3.08;;;7.70;99.90;;;;;;5054806;28;20036;-60
2022/12/23 10:33:04;;;;;;;6.03;2.45;;;7.70;99.90;;;;;;5055079;28;20036;-67
2022/12/23 10:35:45;;;;;;;9.20;4.10;;;7.80;99.90;;;;;;5055120;28;20447;-61
2022/12/23 10:38:16;;;;;;;15.07;3.75;;;7.80;99.90;;;;;;5036954;28;20381;-61
2022/12/23 10:41:00;;;;;;;8.40;3.50;;;7.90;99.90;;;;;;5054641;28;20382;-61
2022/12/23 10:43:54;;;;;;;10.23;3.60;;;7.90;99.90;;;;;;5037029;28;20056;-61
2022/12/23 10:46:38;;;;;;;8.80;3.50;;;7.90;99.90;;;;;;5054916;28;20036;-61
2022/12/23 10:49:41;;;;;;;7.28;3.25;;;7.80;99.90;;;;;;5054932;28;20037;-62
2022/12/23 10:52:33;;;;;;;7.18;3.47;;;7.90;99.90;;;;;;5054585;28;20076;-61
2022/12/23 10:54:58;;;;;;;9.13;3.33;;;7.80;99.90;;;;;;5054539;28;20045;-61
2022/12/23 10:57:24;;;;;;;6.57;3.20;;;7.80;99.90;;;;;;5054820;28;20029;-61
2022/12/23 10:59:50;;;;;;;7.75;3.70;;;7.80;99.90;;;;;;5054321;28;20168;-61
2022/12/23 11:03:05;;;;;;;6.15;2.95;;;7.80;99.90;;;;;;5054315;28;20518;-62
2022/12/23 11:05:33;;;;;;;6.93;3.67;;;7.90;99.90;;;;;;5054230;28;20056;-65
2022/12/23 11:07:59;;;;;;;10.82;3.53;;;8.00;99.90;;;;;;5036892;28;20040;-64
2022/12/23 11:10:31;;;;;;;7.03;3.25;;;8.00;99.90;;;;;;5036411;28;20041;-66
2022/12/23 11:12:57;;;;;;;7.22;3.65;;;8.30;99.90;;;;;;5036197;28;20048;-64
2022/12/23 11:15:38;;;;;;;6.30;3.08;;;8.20;99.90;;;;;;5054369;28;20047;-64
2022/12/23 11:18:21;;;;;;;8.95;3.50;;;8.10;99.90;;;;;;5054046;28;20033;-64
2022/12/23 11:21:05;;;;;;;9.20;4.22;;;8.20;99.90;;;;;;5054117;28;20037;-64
2022/12/23 11:23:34;;;;;;;7.90;3.05;;;8.20;99.90;;;;;;5054267;28;20346;-65
2022/12/23 11:26:10;;;;;;;9.20;4.03;;;8.20;99.90;;;;;;5054136;28;20045;-65
2022/12/23 11:28:39;;;;;;;8.05;3.50;;;8.30;99.90;;;;;;5054101;28;20041;-64
2022/12/23 11:31:13;;;;;;;8.75;4.22;;;8.10;99.90;;;;;;5054020;28;20041;-64
2022/12/23 11:33:58;;;;;;;10.75;3.67;;;8.00;99.90;;;;;;5053935;28;20442;-64
2022/12/23 11:36:26;;;;;;;7.28;3.22;;;8.00;99.90;;;;;;5053629;28;20048;-64
2022/12/23 11:38:59;;;;;;;10.20;2.95;;;8.00;99.90;;;;;;5019269;28;20040;-63
2022/12/23 11:41:28;;;;;;;9.07;3.85;;;8.70;99.90;;;;;;5053391;28;20045;-63
2022/12/23 11:44:10;;;;;;;6.95;3.20;;;8.10;99.90;;;;;;5053793;28;20045;-64
2022/12/23 11:46:36;;;;;;;5.70;2.80;;;7.90;99.90;;;;;;5035679;28;20045;-63
2022/12/23 11:49:18;;;;;;;9.07;3.53;;;7.90;99.90;;;;;;5053418;28;20033;-62
2022/12/23 11:51:47;;;;;;;6.60;3.08;;;8.00;99.90;;;;;;5035407;28;20381;-64
2022/12/23 11:54:18;;;;;;;6.50;3.35;;;8.00;99.90;;;;;;5053001;28;20059;-63
2022/12/23 11:56:48;;;;;;;7.30;3.83;;;8.00;99.90;;;;;;5053661;28;20487;-64
2022/12/23 11:59:43;;;;;;;7.53;3.47;;;8.00;99.90;;;;;;5053822;28;20391;-65
2022/12/23 12:02:14;;;;;;;6.30;3.28;;;8.00;99.90;;;;;;5035416;28;20059;-64
2022/12/23 12:04:41;;;;;;;8.35;3.92;;;8.30;99.90;;;;;;5053356;28;20460;-64
2022/12/23 12:07:12;;;;;;;7.22;3.38;;;8.10;99.90;;;;;;5053096;28;20089;-63
2022/12/23 12:09:40;;;;;;;6.28;3.40;;;8.00;99.90;;;;;;5053138;28;20040;-64
2022/12/23 12:12:13;;;;;;;7.15;3.28;;;8.10;99.90;;;;;;5052980;28;20039;-65
2022/12/23 12:14:45;;;;;;;9.35;3.83;;;8.10;99.90;;;;;;5053367;28;20094;-64
2022/12/23 12:17:26;;;;;;;8.32;3.83;;;8.00;99.90;;;;;;5035243;28;20404;-64
2022/12/23 12:20:01;;;;;;;8.27;3.28;;;8.10;99.90;;;;;;5053040;28;20037;-64
2022/12/23 12:22:46;;;;;;;10.57;3.80;;;8.10;99.90;;;;;;5034965;28;20128;-65
2022/12/23 12:25:19;;;;;;;8.43;3.63;;;8.00;99.90;;;;;;5035450;28;20048;-65
2022/12/23 12:27:52;;;;;;;7.30;3.08;;;7.90;99.90;;;;;;5052801;28;20115;-65
2022/12/23 12:30:19;;;;;;;7.60;3.95;;;8.00;99.90;;;;;;5035040;28;20041;-64
2022/12/23 12:33:23;;;;;;;7.53;3.70;;;7.90;99.90;;;;;;5053117;28;20045;-65
2022/12/23 12:35:58;;;;;;;8.95;4.00;;;7.90;99.90;;;;;;5053072;28;20041;-65
2022/12/23 12:38:31;;;;;;;9.50;4.25;;;8.00;99.90;;;;;;5034961;28;20119;-66
2022/12/23 12:41:15;;;;;;;9.23;3.58;;;8.00;99.90;;;;;;5052942;28;20080;-64
2022/12/23 12:43:47;;;;;;;6.05;3.17;;;8.00;99.90;;;;;;5034830;28;20033;-66
2022/12/23 12:46:32;;;;;;;8.52;3.90;;;8.10;99.90;;;;;;5052754;28;20052;-65
2022/12/23 12:49:10;;;;;;;5.32;2.70;;;8.10;99.90;;;;;;5052972;28;20033;-65
2022/12/23 12:51:58;;;;;;;9.63;4.32;;;8.10;99.90;;;;;;5052932;28;20408;-64
2022/12/23 12:54:40;;;;;;;11.05;4.65;;;8.10;99.90;;;;;;5052901;28;20080;-65
2022/12/23 12:57:14;;;;;;;16.60;4.60;;;8.10;99.90;;;;;;5034813;28;20419;-65
2022/12/23 12:59:41;;;;;;;7.35;3.67;;;8.00;99.90;;;;;;5034773;28;20041;-64
2022/12/23 13:02:28;;;;;;;12.25;4.43;;;8.10;99.90;;;;;;5034756;28;20167;-64
2022/12/23 13:05:32;;;;;;;8.93;4.40;;;8.10;99.90;;;;;;5055149;28;20041;-64
2022/12/23 13:08:28;;;;;;;9.43;3.70;;;8.00;99.90;;;;;;4959462;28;20042;-65
2022/12/23 13:11:08;;;;;;;9.38;4.18;;;8.10;99.90;;;;;;5056714;28;20049;-65
2022/12/23 13:13:50;;;;;;;10.07;4.55;;;8.00;99.90;;;;;;5038594;28;20056;-65
2022/12/23 13:16:36;;;;;;;11.15;3.95;;;8.00;99.90;;;;;;5056735;28;20044;-65
2022/12/23 13:19:37;;;;;;;11.35;4.45;;;8.00;99.90;;;;;;5056670;28;20429;-65
2022/12/23 13:22:08;;;;;;;10.77;4.07;;;8.00;99.90;;;;;;5056448;28;20498;-65
2022/12/23 13:24:56;;;;;;;11.52;4.13;;;7.90;99.90;;;;;;5056602;28;20311;-64
2022/12/23 13:27:29;;;;;;;8.32;3.25;;;7.90;99.90;;;;;;5038598;28;20044;-65
2022/12/23 13:30:00;;;;;;;8.25;3.90;;;8.00;99.90;;;;;;5056108;28;20439;-65
2022/12/23 13:32:53;;;;;;;9.13;3.85;;;8.00;99.90;;;;;;5056362;28;20074;-66
2022/12/23 13:35:38;;;;;;;10.55;3.88;;;8.00;99.90;;;;;;5038486;28;20047;-64
2022/12/23 13:38:34;;;;;;;11.13;4.28;;;8.00;99.90;;;;;;5021630;28;20052;-63
2022/12/23 13:41:18;;;;;;;8.60;4.18;;;7.80;99.90;;;;;;5056171;28;20095;-64